Time;durP1;ratioP1;P1;durP2;ratioP2;P2;SDS_P1;SDS_P2;PMS_P1;PMS_P2;Temp;Humidity;BMP_temperature;BMP_pressure;BME280_temperature;BME280_humidity;BME280_pressure;Samples;Min_cycle;Max_cycle;Signal;HPM_P1;HPM_P2
2023/03/17 06:04:46;;;;;;;;;6.33;6.33;;;;;14.55;50.96;67026.78;5394427;23;46324;-88
2023/03/17 06:07:12;;;;;;;;;5.67;4.00;;;;;14.77;50.81;66972.53;5009611;28;45474;-91
2023/03/17 06:09:37;;;;;;;;;6.00;4.33;;;;;14.20;51.37;66912.28;4999656;28;48113;-90
2023/03/17 06:12:03;;;;;;;;;3.00;3.00;;;;;13.86;50.91;66898.50;5016975;28;45487;-91
2023/03/17 06:14:28;;;;;;;;;5.33;4.00;;;;;13.84;51.06;66877.56;5016246;28;45429;-91
2023/03/17 06:16:54;;;;;;;;;5.00;5.00;;;;;14.66;51.21;66895.34;5010071;28;45451;-91
2023/03/17 06:19:20;;;;;;;;;10.33;4.67;;;;;14.67;51.36;66840.63;5006687;28;46970;-88
2023/03/17 06:21:45;;;;;;;;;6.67;5.00;;;;;14.03;51.43;66720.41;5008073;28;45519;-89
2023/03/17 06:24:11;;;;;;;;;7.33;4.00;;;;;14.68;50.84;66861.00;5009676;28;45510;-89
2023/03/17 06:26:37;;;;;;;;;4.67;4.67;;;;;14.18;51.21;66750.47;5010266;28;45442;-90
2023/03/17 06:29:04;;;;;;;;;6.67;4.33;;;;;14.50;51.42;66816.75;5010776;28;46241;-90
2023/03/17 06:31:29;;;;;;;;;5.00;5.00;;;;;14.30;51.17;66767.56;5020546;28;45293;-88
2023/03/17 06:33:55;;;;;;;;;6.00;5.67;;;;;14.67;51.27;66824.66;4996648;28;45759;-88
2023/03/17 06:36:20;;;;;;;;;7.33;5.00;;;;;13.57;51.62;66639.16;5012331;28;45572;-89
2023/03/17 06:38:46;;;;;;;;;5.33;5.33;;;;;14.57;51.50;66699.31;4998573;28;45964;-89
2023/03/17 06:41:11;;;;;;;;;5.67;5.00;;;;;14.71;51.49;66718.16;4986877;28;45486;-91
2023/03/17 06:43:37;;;;;;;;;7.00;6.33;;;;;14.87;50.88;66733.41;4985864;28;46910;-89
2023/03/17 06:46:02;;;;;;;;;5.67;4.67;;;;;14.66;50.92;66667.16;4993302;28;45614;-91
2023/03/17 06:48:28;;;;;;;;;7.00;6.00;;;;;13.76;50.94;66533.59;5007382;28;46544;-90
2023/03/17 06:50:53;;;;;;;;;5.00;5.00;;;;;14.97;51.58;66686.41;5006171;28;45894;-89
2023/03/17 06:53:19;;;;;;;;;5.00;5.00;;;;;15.00;51.12;66676.00;4991044;28;45573;-91
2023/03/17 06:55:45;;;;;;;;;5.00;4.00;;;;;14.44;50.89;66577.88;4988505;28;45540;-91
2023/03/17 06:58:12;;;;;;;;;6.33;4.67;;;;;14.47;51.32;66570.69;4988870;28;47518;-90
2023/03/17 07:00:38;;;;;;;;;7.00;5.33;;;;;14.35;51.33;66507.50;4997370;28;45303;-91
2023/03/17 07:03:04;;;;;;;;;11.00;5.00;;;;;15.01;51.10;66639.31;5010245;28;45485;-93
2023/03/17 07:05:30;;;;;;;;;4.33;4.00;;;;;14.73;51.07;66570.91;4999746;28;45625;-91
2023/03/17 07:07:56;;;;;;;;;7.33;4.67;;;;;14.47;51.34;66504.81;4989399;28;47066;-90
2023/03/17 07:10:22;;;;;;;;;5.00;5.00;;;;;14.70;51.32;66511.56;5009398;28;45956;-92
2023/03/17 07:12:48;;;;;;;;;5.00;5.00;;;;;15.03;51.33;66556.44;4994610;28;46184;-93
2023/03/17 07:15:14;;;;;;;;;5.67;5.67;;;;;14.35;51.28;66488.31;4994928;28;45527;-92
2023/03/17 07:17:40;;;;;;;;;3.00;3.00;;;;;15.06;51.14;66531.22;4998250;28;47299;-93
2023/03/17 07:20:06;;;;;;;;;4.33;4.00;;;;;14.83;51.29;66443.50;5008960;28;45399;-93
2023/03/17 07:22:31;;;;;;;;;5.00;5.00;;;;;14.96;51.42;66376.56;5017573;28;45404;-92
2023/03/17 07:24:57;;;;;;;;;9.33;7.67;;;;;14.48;50.99;66444.22;4983365;28;45630;-92
2023/03/17 07:27:24;;;;;;;;;7.33;5.00;;;;;15.26;50.93;66526.50;5015157;28;46591;-91
2023/03/17 07:29:50;;;;;;;;;4.00;4.00;;;;;14.65;50.45;66511.69;5000349;28;45518;-92
2023/03/17 07:32:15;;;;;;;;;4.33;4.33;;;;;14.78;50.61;66500.09;5019851;28;45396;-92
2023/03/17 07:34:40;;;;;;;;;5.67;5.00;;;;;15.12;50.40;66494.97;4995126;28;45592;-94
2023/03/17 07:37:06;;;;;;;;;5.67;5.67;;;;;14.46;50.36;66482.38;5009663;28;46395;-93
2023/03/17 07:39:32;;;;;;;;;4.33;4.00;;;;;14.30;50.32;66413.44;5020095;28;45379;-94
2023/03/17 07:41:57;;;;;;;;;5.00;5.00;;;;;14.87;50.38;66515.22;5002709;28;45387;-95
2023/03/17 07:44:23;;;;;;;;;7.00;5.67;;;;;15.39;50.40;66592.09;5003211;28;45618;-93
2023/03/17 07:46:50;;;;;;;;;4.67;4.33;;;;;15.37;50.15;66569.03;5001732;28;47339;-93
2023/03/17 07:49:17;;;;;;;;;6.33;6.33;;;;;14.03;50.01;66438.75;5002141;28;45261;-93
2023/03/17 07:51:42;;;;;;;;;5.00;4.00;;;;;15.48;50.52;66519.31;5002460;28;45482;-94
2023/03/17 07:54:10;;;;;;;;;4.33;4.33;;;;;15.12;50.22;66457.69;5002495;28;45560;-92
2023/03/17 07:56:37;;;;;;;;;5.00;3.33;;;;;15.08;50.44;66443.03;5002121;28;48543;-92
2023/03/17 07:59:02;;;;;;;;;5.33;4.00;;;;;15.13;49.58;66651.09;5002281;28;45463;-94
2023/03/17 08:01:29;;;;;;;;;7.33;5.33;;;;;15.27;49.98;66568.16;5004583;28;45374;-90
2023/03/17 08:03:55;;;;;;;;;4.33;3.00;;;;;15.67;50.73;66415.44;5019184;28;45449;-88
2023/03/17 08:06:24;;;;;;;;;5.33;5.33;;;;;15.63;49.86;66573.91;5019037;28;45437;-89
2023/03/17 08:08:50;;;;;;;;;8.33;5.33;;;;;15.58;50.48;66381.69;5018097;28;45335;-85
2023/03/17 08:11:16;;;;;;;;;7.67;6.33;;;;;15.75;50.16;66419.31;5018886;28;45540;-94
2023/03/17 08:13:42;;;;;;;;;5.33;5.33;;;;;15.35;50.21;66460.22;5001630;28;45454;-94
2023/03/17 08:16:07;;;;;;;;;6.33;4.33;;;;;15.83;50.05;66394.47;5018505;28;45395;-93
2023/03/17 08:18:32;;;;;;;;;4.67;4.67;;;;;15.89;50.06;66440.75;5001419;28;45483;-92
2023/03/17 08:20:58;;;;;;;;;4.00;4.00;;;;;15.36;49.15;66625.91;5000976;28;45443;-93
2023/03/17 08:23:24;;;;;;;;;6.67;6.33;;;;;15.74;49.11;66708.59;5002075;28;45700;-93
2023/03/17 08:25:49;;;;;;;;;5.00;5.00;;;;;15.53;49.42;66589.00;5018133;28;48203;-94
2023/03/17 08:28:15;;;;;;;;;5.33;3.67;;;;;15.58;48.63;66642.72;4996073;28;45899;-94
2023/03/17 08:30:41;;;;;;;;;5.00;4.00;;;;;15.71;48.98;66635.84;4981033;28;45357;-93
2023/03/17 08:33:08;;;;;;;;;4.00;4.00;;;;;16.13;48.28;66835.16;5000065;28;45344;-94
2023/03/17 08:35:35;;;;;;;;;4.00;3.67;;;;;16.19;48.78;66674.69;4981810;28;48449;-91
2023/03/17 08:38:01;;;;;;;;;4.33;3.67;;;;;16.25;49.10;66534.38;4981445;28;45352;-89
2023/03/17 08:40:27;;;;;;;;;5.00;5.00;;;;;16.33;50.12;66351.56;4999466;28;45931;-90
2023/03/17 08:42:52;;;;;;;;;9.67;5.00;;;;;16.04;48.49;66542.75;4999094;28;45578;-90
2023/03/17 08:45:18;;;;;;;;;4.33;4.33;;;;;16.34;48.34;66714.84;4998675;28;46129;-90
2023/03/17 08:47:44;;;;;;;;;5.00;5.00;;;;;16.34;48.30;66685.50;4998914;28;45394;-90
2023/03/17 08:50:17;;;;;;;;;7.67;4.67;;;;;16.04;47.60;66644.63;4981465;28;45401;-90
2023/03/17 08:52:42;;;;;;;;;3.00;3.00;;;;;16.69;48.12;66728.00;4981104;28;45452;-91
2023/03/17 08:55:09;;;;;;;;;6.67;3.67;;;;;16.79;48.36;66621.59;4981173;28;47126;-91
2023/03/17 08:57:35;;;;;;;;;5.33;4.00;;;;;16.43;47.05;66791.94;4998984;28;45476;-91
2023/03/17 09:00:01;;;;;;;;;3.67;3.67;;;;;16.49;46.87;66793.53;4998555;28;45421;-91
2023/03/17 09:02:27;;;;;;;;;3.33;3.33;;;;;16.57;47.31;66781.44;5013016;28;45461;-90
2023/03/17 09:05:14;;;;;;;;;5.00;5.00;;;;;16.73;46.93;66903.44;5018198;28;45322;-90
2023/03/17 09:07:41;;;;;;;;;4.00;4.00;;;;;16.84;47.29;66678.06;5018440;28;45926;-91
2023/03/17 09:10:09;;;;;;;;;5.00;4.00;;;;;17.32;47.77;66640.88;5000795;28;45328;-90
2023/03/17 09:12:36;;;;;;;;;3.00;3.00;;;;;17.31;46.08;66888.75;5018696;28;45452;-89
2023/03/17 09:15:01;;;;;;;;;3.00;3.00;;;;;17.42;45.84;66995.00;5017906;28;45327;-89
2023/03/17 09:17:27;;;;;;;;;3.33;3.33;;;;;17.09;44.93;67054.06;5000315;28;46018;-91
2023/03/17 09:19:52;;;;;;;;;4.00;4.00;;;;;17.88;45.31;67087.28;5000182;28;45337;-89
2023/03/17 09:22:18;;;;;;;;;4.00;4.00;;;;;17.88;44.44;67177.59;5018620;28;45340;-90
2023/03/17 09:24:44;;;;;;;;;3.00;2.00;;;;;18.13;44.29;67219.44;5017906;28;45518;-89
2023/03/17 09:27:10;;;;;;;;;4.00;4.00;;;;;18.08;44.14;67251.66;5000218;28;45470;-90
2023/03/17 09:29:35;;;;;;;;;4.00;4.00;;;;;18.44;43.81;67337.84;5017979;28;45390;-89
2023/03/17 09:32:01;;;;;;;;;4.67;4.00;;;;;18.37;43.07;67422.78;5000416;28;45380;-90
2023/03/17 09:34:26;;;;;;;;;3.00;3.00;;;;;18.48;43.43;67459.72;5018217;28;45832;-89
2023/03/17 09:36:53;;;;;;;;;3.33;3.33;;;;;18.41;43.09;67400.69;5017910;28;45381;-91
2023/03/17 09:39:20;;;;;;;;;4.33;3.33;;;;;18.02;42.69;67506.81;5018032;28;45377;-90
2023/03/17 09:42:24;;;;;;;;;4.00;4.00;;;;;18.93;42.55;67615.50;5017351;28;45230;-91
2023/03/17 09:45:11;;;;;;;;;2.67;2.67;;;;;19.12;43.35;67516.50;4917397;28;45492;-91
2023/03/17 09:47:58;;;;;;;;;5.00;4.00;;;;;19.29;42.64;67600.06;4917940;28;45342;-91
2023/03/17 09:50:30;;;;;;;;;5.33;4.33;;;;;19.47;41.78;67720.28;4918302;28;45290;-89
2023/03/17 09:52:58;;;;;;;;;4.00;3.00;;;;;19.50;41.25;67809.59;4918317;28;45367;-89
2023/03/17 09:55:29;;;;;;;;;5.00;3.00;;;;;19.76;41.37;67801.31;4901774;28;47459;-88
2023/03/17 09:57:56;;;;;;;;;5.00;3.00;;;;;19.65;40.70;67882.31;4917759;28;45573;-91
2023/03/17 10:00:28;;;;;;;;;4.75;3.00;;;;;20.01;39.63;68031.84;4898755;29;45382;-91
2023/03/17 10:02:55;;;;;;;;;4.00;4.00;;;;;19.98;39.97;68055.16;4918562;28;45689;-91
2023/03/17 10:05:30;;;;;;;;;4.00;2.00;;;;;19.37;40.74;67977.28;4936842;28;45949;-91
2023/03/17 10:08:09;;;;;;;;;4.00;2.00;;;;;20.11;39.48;68134.28;4920835;28;45395;-91
2023/03/17 10:11:05;;;;;;;;;2.00;2.00;;;;;20.11;39.74;68190.03;4921744;28;45426;-86
2023/03/17 10:14:03;;;;;;;;;1.50;1.25;;;;;20.12;39.46;68185.84;4921023;28;45522;-86
2023/03/17 10:17:10;;;;;;;;;4.00;1.00;;;;;20.17;39.77;68245.44;4914976;28;46505;-87
2023/03/17 10:19:56;;;;;;;;;1.50;1.50;;;;;20.22;39.45;68273.38;4916884;28;45378;-86
2023/03/17 10:22:48;;;;;;;;;1.00;1.00;;;;;20.30;39.09;68262.81;5004692;28;45301;-87
2023/03/17 10:25:19;;;;;;;;;1.75;1.75;;;;;20.41;39.01;68337.53;5014017;28;45395;-86
2023/03/17 10:27:54;;;;;;;;;3.00;1.00;;;;;19.75;38.66;68285.72;5016470;28;45320;-86
2023/03/17 10:30:22;;;;;;;;;0.25;0.25;;;;;20.07;38.88;68346.41;5016799;28;45622;-87
2023/03/17 10:32:49;;;;;;;;;1.50;0.75;;;;;20.34;39.13;68372.84;4998800;28;45467;-87
2023/03/17 10:35:15;;;;;;;;;1.00;1.00;;;;;19.81;39.50;68421.56;4999279;28;45380;-90
2023/03/17 10:37:42;;;;;;;;;2.00;2.00;;;;;19.71;39.38;68369.53;4998904;28;47764;-89
2023/03/17 10:40:29;;;;;;;;;0.00;0.00;;;;;20.19;39.39;68462.56;4998843;28;45388;-91
2023/03/17 10:43:04;;;;;;;;;1.00;1.00;;;;;20.14;39.60;68486.78;4998658;28;45430;-85
2023/03/17 10:45:37;;;;;;;;;1.50;0.75;;;;;20.10;39.01;68471.31;5016652;28;45510;-86
2023/03/17 10:48:08;;;;;;;;;0.75;0.50;;;;;19.95;38.80;68499.22;5016078;28;46477;-85
2023/03/17 10:50:36;;;;;;;;;1.00;1.00;;;;;20.06;39.20;68480.00;5016670;28;45394;-85
2023/03/17 10:53:01;;;;;;;;;1.00;1.00;;;;;20.07;38.64;68475.25;5016436;28;45330;-87
2023/03/17 10:55:39;;;;;;;;;1.00;1.00;;;;;19.58;38.56;68513.00;5016501;28;45482;-89
2023/03/17 10:58:12;;;;;;;;;1.00;1.00;;;;;19.95;38.72;68499.81;5016094;28;45624;-88
2023/03/17 11:00:48;;;;;;;;;1.00;1.00;;;;;19.93;39.12;68518.34;4993763;28;46738;-88
2023/03/17 11:03:21;;;;;;;;;2.00;2.00;;;;;19.91;39.26;68542.81;5016127;28;45455;-88
2023/03/17 11:05:56;;;;;;;;;1.00;1.00;;;;;19.42;39.41;68473.22;5016257;28;45338;-91
2023/03/17 11:08:22;;;;;;;;;1.00;1.00;;;;;19.39;39.72;68496.50;4998444;28;46481;-90
2023/03/17 11:10:54;;;;;;;;;0.75;0.50;;;;;19.19;39.69;68471.38;4998086;28;45388;-90
2023/03/17 11:13:19;;;;;;;;;1.00;1.00;;;;;19.84;39.98;68529.16;5016437;28;45436;-88
2023/03/17 11:16:06;;;;;;;;;1.75;1.00;;;;;19.55;39.18;68412.91;5016468;28;45494;-88
2023/03/17 11:18:36;;;;;;;;;0.75;0.00;;;;;20.24;39.99;68509.31;4998096;28;48520;-88
2023/03/17 11:21:09;;;;;;;;;0.00;0.00;;;;;20.43;39.78;68474.19;5016060;28;45414;-89
2023/03/17 11:23:35;;;;;;;;;0.25;0.25;;;;;20.65;39.07;68462.00;5016419;28;45438;-88
2023/03/17 11:26:25;;;;;;;;;0.75;0.00;;;;;20.91;39.11;68467.28;5015872;28;45436;-92
2023/03/17 11:29:10;;;;;;;;;1.00;1.00;;;;;21.07;38.60;68494.84;5015924;28;45454;-91
2023/03/17 11:31:48;;;;;;;;;1.00;1.00;;;;;21.08;38.17;68422.84;4998023;28;45906;-90
2023/03/17 11:34:26;;;;;;;;;1.50;1.50;;;;;20.63;38.09;68390.34;4998462;28;45395;-88
2023/03/17 11:36:54;;;;;;;;;1427.33;1426.67;;;;;22.22;38.13;68481.69;4998378;28;45471;-88
2023/03/17 11:39:26;;;;;;;;;1.00;1.00;;;;;22.55;37.64;68511.34;5015923;28;45442;-88
2023/03/17 11:42:08;;;;;;;;;2.00;2.00;;;;;22.96;37.10;68534.84;5015982;28;45398;-88
2023/03/17 11:44:34;;;;;;;;;0.75;0.75;;;;;23.32;36.49;68535.06;5015919;28;45296;-89
2023/03/17 11:47:22;;;;;;;;;1.00;1.00;;;;;23.28;35.73;68589.72;4998667;28;45391;-88
2023/03/17 11:50:16;;;;;;;;;1.00;1.00;;;;;23.75;35.41;68660.81;5012217;28;46489;-89
2023/03/17 11:53:03;;;;;;;;;2.00;1.50;;;;;23.72;35.40;68799.78;5009273;28;45932;-92
2023/03/17 11:55:47;;;;;;;;;1.50;1.00;;;;;23.58;35.50;68770.31;5020286;28;45417;-91
2023/03/17 11:58:32;;;;;;;;;0.00;0.00;;;;;22.71;35.57;68877.34;5001033;28;45695;-91
2023/03/17 12:01:01;;;;;;;;;1.00;1.00;;;;;22.80;37.20;68890.72;5015284;28;48284;-95
2023/03/17 12:03:37;;;;;;;;;3.00;1.75;;;;;22.01;37.21;68777.31;4999057;28;45341;-94
2023/03/17 12:06:10;;;;;;;;;2.00;2.00;;;;;21.62;38.25;68781.38;4994456;28;45281;-91
2023/03/17 12:08:44;;;;;;;;;3.25;2.00;;;;;21.78;38.54;68840.13;5017046;28;45344;-87
2023/03/17 12:11:16;;;;;;;;;2.75;2.00;;;;;21.31;39.26;68787.69;5018735;28;45513;-87
2023/03/17 12:14:03;;;;;;;;;2.00;2.00;;;;;21.13;39.40;68742.75;5018795;28;45391;-86
2023/03/17 12:16:37;;;;;;;;;4.25;1.00;;;;;20.90;39.58;68649.47;5017666;28;45371;-86
2023/03/17 12:19:15;;;;;;;;;2.00;2.00;;;;;20.28;40.47;68609.53;5018847;28;45352;-87
2023/03/17 12:21:49;;;;;;;;;2.00;2.00;;;;;20.43;40.37;68646.09;5018736;28;46527;-85
2023/03/17 12:24:19;;;;;;;;;2.00;2.00;;;;;19.99;41.54;68546.88;5018732;28;45352;-87
2023/03/17 12:27:11;;;;;;;;;1.75;1.75;;;;;19.73;41.66;68591.88;5018660;28;45667;-86
2023/03/17 12:29:41;;;;;;;;;2.00;2.00;;;;;19.95;41.99;68566.34;5017987;28;45353;-88
2023/03/17 12:32:20;;;;;;;;;3.00;3.00;;;;;18.96;42.11;68374.53;5000547;28;48252;-87
2023/03/17 12:34:50;;;;;;;;;3.00;3.00;;;;;19.58;43.02;68454.00;5018724;28;45382;-89
2023/03/17 12:37:17;;;;;;;;;3.67;2.00;;;;;19.18;43.16;68432.06;5000869;28;45340;-88
2023/03/17 12:39:57;;;;;;;;;2.00;2.00;;;;;19.26;43.59;68446.88;5018911;28;45456;-88
2023/03/17 12:42:47;;;;;;;;;3.67;1.33;;;;;19.27;43.97;68383.13;5000811;28;47429;-87
2023/03/17 12:45:47;;;;;;;;;1.67;1.67;;;;;19.22;43.61;68342.38;5018779;28;45343;-88
2023/03/17 12:48:36;;;;;;;;;4.67;1.33;;;;;19.16;44.08;68344.53;5018649;28;45335;-88
2023/03/17 12:51:12;;;;;;;;;3.00;3.00;;;;;18.66;44.44;68176.31;5018805;28;45359;-87
2023/03/17 12:53:45;;;;;;;;;2.00;2.00;;;;;18.98;44.33;68163.09;5018235;28;45559;-88
2023/03/17 12:56:23;;;;;;;;;4.00;2.67;;;;;19.27;44.17;68206.81;5000699;28;45360;-89
2023/03/17 12:58:50;;;;;;;;;2.67;2.33;;;;;19.31;44.19;68144.47;5018306;28;45478;-89
2023/03/17 13:01:36;;;;;;;;;3.00;3.00;;;;;19.37;44.13;68126.81;5018814;28;45480;-88
2023/03/17 13:04:05;;;;;;;;;1.00;1.00;;;;;19.26;44.21;68111.78;5018178;28;45629;-89
2023/03/17 13:06:38;;;;;;;;;2.00;2.00;;;;;18.71;44.21;68081.03;5013616;28;45533;-88
2023/03/17 13:09:42;;;;;;;;;3.00;3.00;;;;;19.20;45.07;68077.94;5017883;28;45416;-89
2023/03/17 13:12:41;;;;;;;;;5.67;3.00;;;;;19.11;45.25;68105.47;4927315;28;45528;-90
2023/03/17 13:15:22;;;;;;;;;4.67;2.00;;;;;19.10;45.22;68048.00;4937334;28;46671;-89
2023/03/17 13:17:48;;;;;;;;;2.00;2.00;;;;;18.92;45.39;68022.09;4937252;28;45501;-89
2023/03/17 13:20:16;;;;;;;;;4.67;3.00;;;;;19.05;45.58;67947.78;4936989;28;45365;-86
2023/03/17 13:23:10;;;;;;;;;2.33;2.33;;;;;19.07;45.92;67909.91;4933944;28;45651;-89
2023/03/17 13:25:40;;;;;;;;;4.33;4.33;;;;;19.13;46.05;67804.41;4936971;28;46637;-89
2023/03/17 13:28:11;;;;;;;;;5.33;4.00;;;;;19.22;45.83;67806.31;4921066;28;45483;-89
2023/03/17 13:30:36;;;;;;;;;4.00;2.00;;;;;19.23;45.86;67834.88;4937331;28;45505;-89
2023/03/17 13:33:10;;;;;;;;;3.67;3.00;;;;;19.24;45.61;67798.50;4922049;28;45549;-88
2023/03/17 13:35:44;;;;;;;;;3.00;3.00;;;;;18.86;45.66;67626.06;4936520;28;46193;-89
2023/03/17 13:38:28;;;;;;;;;4.67;3.00;;;;;19.32;45.98;67703.34;4920991;28;45399;-89
2023/03/17 13:41:05;;;;;;;;;3.00;3.00;;;;;19.35;45.77;67719.66;4937017;28;45426;-88
2023/03/17 13:44:02;;;;;;;;;3.33;3.00;;;;;19.18;45.74;67652.72;4937265;28;45582;-88
2023/03/17 13:46:40;;;;;;;;;2.33;2.33;;;;;19.40;46.14;67610.22;4990046;28;45501;-88
2023/03/17 13:49:18;;;;;;;;;4.00;4.00;;;;;19.43;46.23;67611.03;5016960;28;45406;-89
2023/03/17 13:52:00;;;;;;;;;4.67;4.00;;;;;19.16;46.53;67430.63;5017338;28;45275;-89
2023/03/17 13:54:26;;;;;;;;;5.00;3.33;;;;;19.45;46.19;67449.25;5018175;28;45280;-88
2023/03/17 13:56:54;;;;;;;;;6.33;5.00;;;;;19.18;46.09;67469.91;5017331;28;45288;-88
2023/03/17 13:59:53;;;;;;;;;3.00;3.00;;;;;18.96;47.00;67292.75;5017206;28;45548;-88
2023/03/17 14:02:26;;;;;;;;;4.00;3.00;;;;;19.28;46.57;67448.81;5014443;28;45538;-88
2023/03/17 14:04:53;;;;;;;;;2.00;2.00;;;;;19.15;47.01;67321.69;5014026;28;45683;-89
2023/03/17 14:07:23;;;;;;;;;5.67;4.67;;;;;18.98;47.47;67342.72;5016336;28;45462;-89
2023/03/17 14:09:57;;;;;;;;;4.00;4.00;;;;;18.65;47.43;67193.03;5016812;28;45797;-87
2023/03/17 14:12:45;;;;;;;;;5.00;3.33;;;;;18.58;47.97;67050.47;4987897;28;45612;-89
2023/03/17 14:15:20;;;;;;;;;6.00;5.33;;;;;18.41;48.07;66975.16;5016497;28;45483;-89
2023/03/17 14:17:55;;;;;;;;;4.67;4.00;;;;;18.91;48.60;66858.38;4998956;28;48584;-87
2023/03/17 14:20:23;;;;;;;;;3.00;3.00;;;;;18.41;48.24;66766.44;5015673;28;45497;-89
2023/03/17 14:22:59;;;;;;;;;7.33;5.00;;;;;18.54;48.46;66658.88;5016906;28;45453;-92
2023/03/17 14:25:31;;;;;;;;;3.00;3.00;;;;;18.67;48.94;66568.31;5002146;28;45450;-88
2023/03/17 14:27:57;;;;;;;;;4.33;4.33;;;;;18.75;48.68;66521.28;5015519;28;45455;-89
2023/03/17 14:30:27;;;;;;;;;5.67;4.33;;;;;18.80;48.94;66365.81;5016719;28;45737;-88
2023/03/17 14:33:21;;;;;;;;;3.33;3.33;;;;;18.59;49.17;66253.97;4998355;28;45349;-88
2023/03/17 14:35:50;;;;;;;;;6.33;4.00;;;;;18.77;49.47;66221.63;5017050;28;45483;-88
2023/03/17 14:38:22;;;;;;;;;4.00;4.00;;;;;18.82;50.01;65910.28;4995324;28;47341;-88
2023/03/17 14:40:49;;;;;;;;;5.33;4.00;;;;;18.89;49.93;65851.31;5012284;28;45261;-90
2023/03/17 14:43:16;;;;;;;;;5.67;5.67;;;;;18.59;49.49;65711.25;5005353;28;45381;-96
2023/03/17 14:48:32;;;;;;;;;4.00;4.00;;;;;18.89;49.90;65600.22;5236135;22;45651;-90
2023/03/17 14:54:34;;;;;;;;;4.00;4.00;;;;;18.55;50.13;65329.97;4987299;23;46544;-89
2023/03/17 14:57:12;;;;;;;;;6.33;4.33;;;;;18.70;50.40;65292.28;4950977;28;45521;-90
2023/03/17 14:59:40;;;;;;;;;5.00;5.00;;;;;18.68;50.75;65159.47;4969405;28;48110;-90
2023/03/17 15:02:20;;;;;;;;;6.67;6.00;;;;;18.66;50.53;64975.25;4957294;28;45397;-89
2023/03/17 15:05:17;;;;;;;;;8.33;7.00;;;;;18.35;50.79;64491.66;4957518;28;45516;-90
2023/03/17 15:07:43;;;;;;;;;6.33;6.33;;;;;17.91;51.70;64340.00;4893926;28;46112;-88
2023/03/17 15:10:17;;;;;;;;;8.33;5.67;;;;;18.41;51.60;64156.03;4899931;28;46577;-92
2023/03/17 15:12:45;;;;;;;;;9.00;5.67;;;;;18.61;51.70;63973.81;4896197;28;46269;-94
2023/03/17 15:15:24;;;;;;;;;6.00;6.00;;;;;18.40;51.61;63828.13;4890272;28;45587;-87
2023/03/17 15:17:53;;;;;;;;;5.67;5.67;;;;;18.51;52.05;63612.94;4894241;28;45499;-94
2023/03/17 15:20:19;;;;;;;;;8.67;6.33;;;;;17.93;51.83;63340.22;4897846;28;47042;-90
2023/03/17 15:23:17;;;;;;;;;8.00;6.67;;;;;18.42;51.96;63373.63;4880153;29;45601;-90
2023/03/17 15:25:45;;;;;;;;;8.67;6.67;;;;;18.36;52.16;63081.00;4878497;29;45363;-88
2023/03/17 15:28:12;;;;;;;;;8.00;6.33;;;;;18.34;52.74;62766.03;4897084;29;45408;-90
2023/03/17 15:30:42;;;;;;;;;8.67;6.00;;;;;18.03;52.82;62457.72;4896975;29;46207;-88
2023/03/17 15:33:29;;;;;;;;;10.33;7.67;;;;;18.23;52.74;62131.41;4897219;29;45567;-87
2023/03/17 15:35:55;;;;;;;;;10.33;7.00;;;;;18.25;53.07;61700.69;4878979;29;45402;-89
2023/03/17 15:38:22;;;;;;;;;6.00;6.00;;;;;18.22;53.09;61360.84;4894686;28;45486;-88
2023/03/17 15:40:48;;;;;;;;;7.33;7.33;;;;;18.25;53.32;60974.50;4899603;29;45440;-88
2023/03/17 15:43:15;;;;;;;;;6.00;5.33;;;;;18.13;53.57;60758.84;4914574;28;45447;-88
2023/03/17 15:45:42;;;;;;;;;8.33;7.33;;;;;17.61;53.20;60646.34;4999594;28;45353;-88
2023/03/17 15:48:18;;;;;;;;;7.33;6.00;;;;;17.59;53.32;60361.91;4982586;28;45307;-88
2023/03/17 15:50:47;;;;;;;;;5.33;5.33;;;;;18.19;53.93;59792.47;4999070;28;45435;-87
2023/03/17 15:53:12;;;;;;;;;8.00;6.67;;;;;18.02;53.85;59540.44;4999600;28;45415;-88
2023/03/17 15:55:38;;;;;;;;;6.67;6.00;;;;;17.85;53.86;59059.03;4993832;28;45387;-88
2023/03/17 15:58:03;;;;;;;;;7.33;6.00;;;;;18.08;54.33;58762.31;4980423;28;45309;-89
2023/03/17 16:00:28;;;;;;;;;9.33;7.67;;;;;18.02;53.92;58278.44;4978379;28;47612;-93
2023/03/17 16:02:57;;;;;;;;;7.33;7.33;;;;;17.59;54.10;58291.38;4962300;28;45384;-91
2023/03/17 16:05:26;;;;;;;;;9.33;7.67;;;;;18.21;54.14;57720.13;4962996;28;45408;-90
2023/03/17 16:07:53;;;;;;;;;9.67;6.00;;;;;17.87;54.38;57826.22;4962570;28;45511;-88
2023/03/17 16:10:22;;;;;;;;;7.67;6.00;;;;;17.84;53.95;57316.41;4980225;28;46083;-88
2023/03/17 16:12:48;;;;;;;;;6.33;5.33;;;;;18.11;54.34;57168.88;4979573;28;45333;-88
2023/03/17 16:15:16;;;;;;;;;8.00;6.67;;;;;18.11;54.44;56294.25;4962040;28;45409;-87
2023/03/17 16:17:42;;;;;;;;;5.67;5.67;;;;;18.09;54.77;56145.09;4962174;28;45571;-88
2023/03/17 16:20:21;;;;;;;;;7.67;5.33;;;;;17.99;54.61;55922.44;4979466;28;45639;-87
2023/03/17 16:22:47;;;;;;;;;5.33;5.33;;;;;18.10;54.73;55527.75;4978113;28;45465;-88
2023/03/17 16:25:28;;;;;;;;;8.67;8.67;;;;;18.10;54.40;55300.56;4985676;28;45485;-88
2023/03/17 16:27:55;;;;;;;;;11.00;7.00;;;;;18.09;54.79;54672.88;4985940;28;45498;-88
2023/03/17 16:30:27;;;;;;;;;7.33;7.33;;;;;17.94;54.84;54173.91;4995202;28;46244;-87
2023/03/17 16:32:53;;;;;;;;;12.67;7.33;;;;;17.90;54.86;54108.81;4978115;28;45455;-88
2023/03/17 16:35:23;;;;;;;;;8.00;8.00;;;;;17.82;54.83;53528.34;4991017;28;45691;-87
2023/03/17 16:37:53;;;;;;;;;8.00;5.67;;;;;17.92;55.49;52927.41;4990676;28;45499;-87
2023/03/17 16:40:24;;;;;;;;;7.00;6.33;;;;;17.86;55.22;52335.75;4980986;28;46666;-87
2023/03/17 16:42:50;;;;;;;;;8.33;6.33;;;;;18.06;55.13;51799.78;4981103;28;45410;-87
2023/03/17 16:45:27;;;;;;;;;9.67;7.00;;;;;17.95;55.27;51248.63;4990181;28;45460;-87
2023/03/17 16:47:55;;;;;;;;;6.00;6.00;;;;;18.00;55.71;50603.19;4980040;28;45476;-87
2023/03/17 16:50:23;;;;;;;;;5.33;5.00;;;;;17.99;55.50;49859.72;4971360;28;47374;-87
2023/03/17 16:52:49;;;;;;;;;8.00;6.67;;;;;17.49;55.67;49252.88;4984653;28;45348;-88
2023/03/17 16:55:16;;;;;;;;;6.33;6.00;;;;;17.92;56.00;48682.66;4998432;28;45333;-88
2023/03/17 16:57:45;;;;;;;;;6.33;6.00;;;;;17.85;56.07;47971.44;4986527;28;45556;-87
2023/03/17 17:00:21;;;;;;;;;6.67;6.67;;;;;17.88;56.23;46765.56;4979175;28;46308;-87
2023/03/17 17:02:47;;;;;;;;;6.33;6.33;;;;;17.57;56.57;45161.34;4974748;28;45372;-87
2023/03/17 17:05:18;;;;;;;;;7.33;7.00;;;;;17.65;56.84;43079.25;4985689;28;45474;-87
2023/03/17 17:07:44;;;;;;;;;7.00;6.00;;;;;17.87;57.33;41100.13;4986882;28;45373;-87
2023/03/17 17:10:11;;;;;;;;;7.33;5.33;;;;;17.60;57.08;41165.38;4975312;28;47457;-89
2023/03/17 17:12:37;;;;;;;;;8.00;7.67;;;;;17.47;56.84;42115.13;4977757;28;45462;-89
2023/03/17 17:15:03;;;;;;;;;9.00;8.33;;;;;17.21;57.28;39357.44;4984235;28;45330;-89
2023/03/17 17:17:29;;;;;;;;;9.67;8.67;;;;;16.98;58.06;36309.50;4971295;28;45384;-89
2023/03/17 17:19:54;;;;;;;;;9.67;7.33;;;;;17.80;57.30;35494.44;4990834;28;46331;-89
2023/03/17 17:22:19;;;;;;;;;10.33;9.33;;;;;17.14;58.25;30258.38;4981757;28;45283;-90
2023/03/17 17:24:45;;;;;;;;;10.00;10.00;;;;;17.57;58.16;30358.03;4975643;28;45325;-89
2023/03/17 17:27:10;;;;;;;;;9.33;7.67;;;;;17.10;58.37;27767.19;4982823;28;45414;-90
2023/03/17 17:29:35;;;;;;;;;10.33;7.67;;;;;17.52;58.98;25079.53;4960552;28;48201;-90
2023/03/17 17:32:01;;;;;;;;;5.33;5.33;;;;;17.24;58.80;25066.72;4989364;28;45451;-87
2023/03/17 17:34:26;;;;;;;;;10.67;8.33;;;;;16.93;58.92;22686.59;4992472;28;45405;-88
2023/03/17 17:36:52;;;;;;;;;8.00;8.00;;;;;17.38;59.64;18649.19;4980361;28;45658;-87
2023/03/17 17:39:18;;;;;;;;;3.67;3.67;;;;;16.81;59.51;17279.47;4987712;28;45474;-88
2023/03/17 17:41:43;;;;;;;;;12.67;9.00;;;;;17.20;59.81;16954.84;4971000;28;45514;-89
2023/03/17 17:44:08;;;;;;;;;9.00;8.00;;;;;16.94;59.61;14922.16;4974397;28;45443;-89
2023/03/17 17:46:34;;;;;;;;;8.67;8.33;;;;;17.54;59.65;14939.59;4962346;28;45409;-91
2023/03/17 17:48:59;;;;;;;;;9.00;8.00;;;;;17.06;59.45;15263.22;4986458;28;46218;-92
2023/03/17 17:51:25;;;;;;;;;12.00;11.00;;;;;17.14;59.60;15602.91;4986046;28;45516;-91
2023/03/17 17:53:50;;;;;;;;;10.00;9.33;;;;;16.79;59.45;14917.84;4990854;28;45502;-91
2023/03/17 17:56:17;;;;;;;;;9.00;7.00;;;;;16.25;59.72;13218.28;4980890;28;45520;-88
2023/03/17 17:58:43;;;;;;;;;12.67;8.67;;;;;17.19;59.75;11894.25;4981712;28;45552;-91
2023/03/17 18:01:10;;;;;;;;;8.33;8.33;;;;;17.46;60.72;10214.78;4980184;28;45318;-91